Portada
METAR-TAF:

METAR-TAF

Aeroports :

Aeroport de Poznań-Ławica

Poznań, Polònia

latitud: 52-25N, longitud: 016-50E, altitud: 86 m

Observació

L'informe es va fer fa 15 minuts, a les 11:00 UTC
Vent 4 kt del Est
Temperatura 20°C
Humitat 37%
Pressió 1007 hPa
Visibilitat 10 km o més
sense núvols per sota de 1500 mi sense presència de cumulonimbus.

METAR: EPPO 031100Z 10004KT CAVOK 20/05 Q1007

Hora: 13:15 (11:15 UTC)

Pronòstic

L'informe es va fer fa 5 hores i 45 minuts, a les 05:30 UTC
Pronòstic vàlid del 03 a les 06 UTC al 04 a les 06 UTC
Vent 6 kt del Nord-Est
Visibilitat 10 km o més
sense núvols per sota de 1500 mi sense presència de cumulonimbus.

TAF: EPPO 030530Z 0306/0406 05006KT CAVOK

Observacions i pronòstics meteorològics de més de 4000 aeroports (METAR i TAF).

Les estacions disponibles són els punts grocs i vermells al mapa.

Posi el ratolí al punt desitjat per veure el nom de l'estació.

Feu clic per veure les observacions i els pronòstics meteorològics.

Per canviar el mapa: feu clic els botons verds amb una creu de color negre per apropar; al botó verd amb un guió per allunyar la imatge; o en les fletxes verdes per a mapes adjacents.


METAR-TAF: